Time;durP1;ratioP1;P1;durP2;ratioP2;P2;SDS_P1;SDS_P2;PMS_P1;PMS_P2;Temp;Humidity;BMP_temperature;BMP_pressure;BME280_temperature;BME280_humidity;BME280_pressure;Samples;Min_cycle;Max_cycle;Signal;HPM_P1;HPM_P2
2022/09/04 00:01:22;;;;;;;13.75;7.90;;;;;;;18.41;100.00;98613.63;4850054;29;20522;-83
2022/09/04 00:04:05;;;;;;;14.23;7.68;;;;;;;18.35;100.00;98612.00;4852279;29;20131;-83
2022/09/04 00:06:39;;;;;;;10.13;7.30;;;;;;;18.29;100.00;98612.22;4874534;29;20048;-84
2022/09/04 00:09:08;;;;;;;10.68;7.90;;;;;;;18.31;100.00;98618.06;4862608;29;20516;-83
2022/09/04 00:11:42;;;;;;;8.63;7.10;;;;;;;18.23;100.00;98614.03;4857371;29;20453;-83
2022/09/04 00:14:19;;;;;;;12.32;7.07;;;;;;;18.15;100.00;98602.03;4859588;29;20044;-83
2022/09/04 00:17:02;;;;;;;12.88;7.15;;;;;;;18.16;100.00;98600.19;4841138;29;20037;-84
2022/09/04 00:19:44;;;;;;;7.22;6.45;;;;;;;18.12;100.00;98602.53;4856736;29;20496;-84
2022/09/04 00:22:16;;;;;;;9.25;6.88;;;;;;;18.09;100.00;98608.34;4868744;29;20033;-84
2022/09/04 00:24:48;;;;;;;12.85;7.60;;;;;;;18.03;100.00;98610.16;4852899;29;20030;-82
2022/09/04 00:27:22;;;;;;;9.57;7.43;;;;;;;17.98;100.00;98618.88;4852871;29;20431;-84
2022/09/04 00:30:01;;;;;;;7.55;6.28;;;;;;;17.96;100.00;98610.34;4854250;29;20277;-83
2022/09/04 00:32:40;;;;;;;11.40;6.80;;;;;;;17.89;100.00;98614.28;4852534;29;20042;-82
2022/09/04 00:35:14;;;;;;;11.18;6.75;;;;;;;17.87;100.00;98614.53;4850105;29;20564;-83
2022/09/04 00:37:44;;;;;;;11.50;6.82;;;;;;;17.80;100.00;98616.63;4848954;29;20408;-82
2022/09/04 00:40:30;;;;;;;9.88;6.72;;;;;;;17.87;100.00;98621.69;4847424;29;20042;-82
2022/09/04 00:43:13;;;;;;;13.65;7.85;;;;;;;17.83;100.00;98622.19;4854314;29;20424;-83
2022/09/04 00:46:15;;;;;;;9.40;7.43;;;;;;;17.85;100.00;98620.09;4853332;29;20129;-82
2022/09/04 00:48:59;;;;;;;10.98;7.72;;;;;;;17.75;100.00;98617.38;4849040;29;20040;-83
2022/09/04 00:51:36;;;;;;;10.02;8.05;;;;;;;17.78;100.00;98619.50;4854188;29;20033;-83
2022/09/04 00:54:48;;;;;;;11.70;7.68;;;;;;;17.78;100.00;98619.50;4849009;29;20034;-82
2022/09/04 00:57:51;;;;;;;11.60;8.13;;;;;;;17.81;100.00;98632.28;4845589;29;20556;-83
2022/09/04 01:00:19;;;;;;;12.30;7.70;;;;;;;17.75;100.00;98624.50;4864853;29;20109;-83
2022/09/04 01:03:06;;;;;;;10.65;7.70;;;;;;;17.80;100.00;98633.31;4853696;29;20082;-82
2022/09/04 01:05:54;;;;;;;12.48;7.90;;;;;;;17.76;100.00;98637.53;4850470;29;20044;-83
2022/09/04 01:08:26;;;;;;;9.07;7.45;;;;;;;17.77;100.00;98639.13;4850788;29;20500;-83
2022/09/04 01:11:10;;;;;;;13.57;8.35;;;;;;;17.80;100.00;98638.63;4852070;29;20037;-83
2022/09/04 01:13:46;;;;;;;14.52;7.75;;;;;;;17.79;100.00;98645.00;4851103;29;20034;-83
2022/09/04 01:16:36;;;;;;;9.93;7.45;;;;;;;17.79;100.00;98637.03;4850363;29;20397;-83
2022/09/04 01:19:35;;;;;;;14.80;8.23;;;;;;;17.82;100.00;98636.53;4848002;29;20054;-83
2022/09/04 01:22:32;;;;;;;10.23;7.28;;;;;;;17.80;100.00;98628.00;4850519;29;20507;-83
2022/09/04 01:25:19;;;;;;;10.55;7.13;;;;;;;17.80;100.00;98630.66;4851713;29;20025;-83
2022/09/04 01:27:57;;;;;;;12.07;7.40;;;;;;;17.82;100.00;98631.22;4849417;29;20026;-83
2022/09/04 01:30:23;;;;;;;11.68;7.32;;;;;;;17.79;100.00;98631.72;4852890;29;20038;-82
2022/09/04 01:33:09;;;;;;;10.63;7.82;;;;;;;17.88;100.00;98631.25;4853898;29;20029;-83
2022/09/04 01:35:47;;;;;;;12.65;6.82;;;;;;;17.90;100.00;98637.13;4852546;29;20538;-82
2022/09/04 01:38:27;;;;;;;9.98;7.13;;;;;;;17.82;100.00;98631.22;4854822;29;20045;-83
2022/09/04 01:41:16;;;;;;;11.50;6.63;;;;;;;17.90;100.00;98642.44;4851161;29;20030;-83
2022/09/04 01:43:42;;;;;;;12.20;6.80;;;;;;;17.90;100.00;98637.13;4850602;29;20045;-82
2022/09/04 01:46:10;;;;;;;8.27;6.70;;;;;;;17.93;100.00;98644.59;4849054;29;20396;-83
2022/09/04 01:49:09;;;;;;;10.00;6.38;;;;;;;17.97;100.00;98632.41;4846834;29;20034;-83
2022/09/04 01:51:38;;;;;;;12.52;6.57;;;;;;;18.01;100.00;98649.44;4849036;29;20536;-83
2022/09/04 01:54:36;;;;;;;11.75;6.80;;;;;;;18.11;100.00;98638.94;4849646;29;20041;-82
2022/09/04 01:57:25;;;;;;;11.77;6.72;;;;;;;18.07;100.00;98631.72;4822088;29;20038;-82
2022/09/04 02:00:11;;;;;;;8.38;6.40;;;;;;;18.10;100.00;98637.34;4850587;29;20037;-83
2022/09/04 02:02:53;;;;;;;10.82;6.20;;;;;;;18.15;100.00;98635.75;4849007;29;20041;-82
2022/09/04 02:05:47;;;;;;;8.45;5.95;;;;;;;18.10;100.00;98641.81;4852778;29;20387;-83
2022/09/04 02:08:12;;;;;;;11.25;6.70;;;;;;;17.93;100.00;98644.59;4852920;29;20037;-84
2022/09/04 02:10:57;;;;;;;8.10;6.50;;;;;;;17.91;100.00;98634.22;4850642;29;20044;-83
2022/09/04 02:13:52;;;;;;;11.07;6.10;;;;;;;17.96;100.00;98638.78;4846920;29;20475;-83
2022/09/04 02:16:55;;;;;;;12.02;6.78;;;;;;;17.92;100.00;98645.66;4850449;29;20033;-83
2022/09/04 02:19:47;;;;;;;8.68;5.85;;;;;;;17.91;100.00;98644.03;4847682;29;20045;-83
2022/09/04 02:22:18;;;;;;;9.65;6.80;;;;;;;17.81;100.00;98648.19;4848851;29;20404;-84
2022/09/04 02:25:01;;;;;;;6.80;5.93;;;;;;;17.84;100.00;98639.72;4850032;29;20129;-84
2022/09/04 02:27:45;;;;;;;7.40;6.30;;;;;;;17.89;100.00;98638.19;4847641;29;20396;-84
2022/09/04 02:30:17;;;;;;;12.20;6.93;;;;;;;17.87;100.00;98645.59;4847760;29;20037;-84
2022/09/04 02:33:01;;;;;;;11.18;6.00;;;;;;;17.84;100.00;98634.41;4850497;29;20416;-84
2022/09/04 02:35:40;;;;;;;7.28;6.57;;;;;;;17.88;100.00;98649.84;4852505;29;20093;-84
2022/09/04 02:38:31;;;;;;;10.90;6.50;;;;;;;17.92;100.00;98643.00;4850276;29;20506;-84
2022/09/04 02:41:08;;;;;;;10.32;6.63;;;;;;;17.82;100.00;98631.22;4850821;29;20116;-84
2022/09/04 02:44:05;;;;;;;11.80;6.75;;;;;;;17.75;100.00;98638.59;4851635;29;20373;-84
2022/09/04 02:46:52;;;;;;;9.45;6.03;;;;;;;17.75;100.00;98627.16;4851162;29;20042;-84
2022/09/04 02:49:50;;;;;;;10.75;6.55;;;;;;;17.70;100.00;98630.59;4851056;29;20045;-83
2022/09/04 02:52:32;;;;;;;10.68;6.50;;;;;;;17.73;100.00;98653.97;4847860;29;20044;-83
2022/09/04 02:55:17;;;;;;;7.40;5.85;;;;;;;17.73;100.00;98647.84;4847244;29;20061;-84
2022/09/04 02:58:12;;;;;;;6.90;5.97;;;;;;;17.67;100.00;98652.31;4849434;29;20029;-83
2022/09/04 03:00:39;;;;;;;10.23;6.47;;;;;;;17.59;100.00;98645.63;4848639;29;20029;-83
2022/09/04 03:03:13;;;;;;;8.00;6.00;;;;;;;17.63;100.00;98648.56;4848382;29;20026;-84
2022/09/04 03:05:58;;;;;;;12.15;7.10;;;;;;;17.60;100.00;98649.06;4845999;29;20068;-83
2022/09/04 03:08:32;;;;;;;6.97;6.22;;;;;;;17.63;100.00;98649.38;4850759;29;20539;-83
2022/09/04 03:11:05;;;;;;;8.32;6.25;;;;;;;17.62;100.00;98641.66;4849936;29;20438;-82
2022/09/04 03:13:46;;;;;;;9.95;6.05;;;;;;;17.55;100.00;98652.47;4846880;29;20033;-83
2022/09/04 03:16:34;;;;;;;8.00;5.75;;;;;;;17.58;100.00;98645.84;4848201;29;20465;-81
2022/09/04 03:19:00;;;;;;;7.45;6.05;;;;;;;17.55;100.00;98647.16;4851466;29;20559;-83
2022/09/04 03:21:39;;;;;;;11.45;5.53;;;;;;;17.48;100.00;98642.03;4846912;29;20168;-84
2022/09/04 03:24:16;;;;;;;11.10;6.00;;;;;;;17.49;100.00;98642.84;4847642;29;20401;-83
2022/09/04 03:27:04;;;;;;;8.95;6.45;;;;;;;17.46;100.00;98628.22;4850081;29;20037;-84
2022/09/04 03:29:32;;;;;;;9.20;6.03;;;;;;;17.49;100.00;98646.31;4849654;29;20044;-84
2022/09/04 03:32:15;;;;;;;9.73;5.72;;;;;;;17.51;100.00;98640.75;4849736;29;20120;-82
2022/09/04 03:34:50;;;;;;;11.63;6.68;;;;;;;17.48;100.00;98641.25;4837820;29;20133;-83
2022/09/04 03:37:53;;;;;;;7.97;5.90;;;;;;;17.56;100.00;98643.44;4849554;29;20440;-83
2022/09/04 03:40:31;;;;;;;14.68;6.93;;;;;;;17.50;100.00;98633.84;4849531;29;20033;-84
2022/09/04 03:42:59;;;;;;;8.85;5.70;;;;;;;17.50;100.00;98639.16;4848812;29;20041;-83
2022/09/04 03:45:34;;;;;;;10.15;6.53;;;;;;;17.51;100.00;98640.75;4848263;29;20037;-83
2022/09/04 03:48:24;;;;;;;9.45;5.63;;;;;;;17.58;100.00;98637.91;4830813;29;20038;-83
2022/09/04 03:51:01;;;;;;;10.15;5.95;;;;;;;17.41;100.00;98641.44;4836669;29;20033;-84
2022/09/04 03:53:52;;;;;;;9.02;6.75;;;;;;;17.57;100.00;98639.72;4851700;29;20037;-83
2022/09/04 03:56:42;;;;;;;9.60;6.70;;;;;;;17.55;100.00;98641.84;4852976;29;20089;-83
2022/09/04 03:59:47;;;;;;;11.30;7.63;;;;;;;17.49;100.00;98638.34;4850421;29;20045;-83
2022/09/04 04:02:27;;;;;;;11.48;6.32;;;;;;;17.49;100.00;98634.88;4849809;29;20404;-83
2022/09/04 04:05:20;;;;;;;12.25;6.10;;;;;;;17.56;100.00;98633.63;4851828;29;20425;-84
2022/09/04 04:07:54;;;;;;;10.65;6.60;;;;;;;17.51;100.00;98644.22;4836724;29;20558;-83
2022/09/04 04:10:44;;;;;;;8.13;6.45;;;;;;;17.41;100.00;98639.59;4849148;29;20049;-84
2022/09/04 04:13:20;;;;;;;10.30;6.20;;;;;;;17.53;100.00;98636.81;4851209;29;20057;-83
2022/09/04 04:15:59;;;;;;;10.88;6.68;;;;;;;17.50;100.00;98639.16;4851326;29;20045;-83
2022/09/04 04:18:52;;;;;;;10.25;6.40;;;;;;;17.52;100.00;98637.84;4849699;29;20484;-83
2022/09/04 04:21:55;;;;;;;9.50;6.97;;;;;;;17.42;100.00;98643.03;4851773;29;20040;-83
2022/09/04 04:24:38;;;;;;;8.65;6.38;;;;;;;17.39;100.00;98638.25;4846773;29;20442;-82
2022/09/04 04:27:10;;;;;;;10.77;6.60;;;;;;;17.35;100.00;98645.88;4853005;29;20025;-83
2022/09/04 04:29:39;;;;;;;10.93;6.93;;;;;;;17.34;100.00;98646.94;4854175;29;20041;-83
2022/09/04 04:32:28;;;;;;;12.48;7.18;;;;;;;17.39;100.00;98656.81;4835857;29;20042;-83
2022/09/04 04:35:24;;;;;;;12.15;7.63;;;;;;;17.39;100.00;98654.97;4842735;29;20041;-83
2022/09/04 04:38:26;;;;;;;11.95;7.13;;;;;;;17.38;100.00;98652.56;4853448;29;20052;-83
2022/09/04 04:41:10;;;;;;;9.52;7.68;;;;;;;17.45;100.00;98653.16;4847654;29;20403;-83
2022/09/04 04:43:36;;;;;;;11.13;6.93;;;;;;;17.36;100.00;98652.00;4833539;29;20034;-84
2022/09/04 04:46:36;;;;;;;9.63;7.15;;;;;;;17.41;100.00;98657.34;4845224;29;20426;-83
2022/09/04 04:49:50;;;;;;;9.82;6.57;;;;;;;17.42;100.00;98651.00;4851042;29;21079;-84
2022/09/04 04:52:44;;;;;;;10.85;7.88;;;;;;;17.41;100.00;98660.81;4841492;29;20137;-83
2022/09/04 04:55:10;;;;;;;;;;;;;;;17.46;100.00;98660.06;4862147;29;20049;-84
2022/09/04 04:57:52;;;;;;;15.00;8.18;;;;;;;17.42;100.00;98664.25;4852346;29;19923;-83
2022/09/04 05:00:38;;;;;;;12.18;8.23;;;;;;;17.32;100.00;98680.88;4850711;29;20508;-83
2022/09/04 05:03:07;;;;;;;13.48;8.20;;;;;;;17.39;100.00;98678.03;4855417;29;20036;-83
2022/09/04 05:06:09;;;;;;;11.75;7.30;;;;;;;17.45;100.00;98681.56;4851803;29;20069;-83
2022/09/04 05:08:37;;;;;;;10.27;7.65;;;;;;;17.42;100.00;98681.00;4830589;29;20101;-82
2022/09/04 05:11:34;;;;;;;12.07;8.15;;;;;;;17.44;100.00;98683.38;4853859;29;20037;-82
2022/09/04 05:14:17;;;;;;;11.43;8.57;;;;;;;17.41;100.00;98686.53;4848459;29;20465;-83
2022/09/04 05:17:04;;;;;;;13.13;8.13;;;;;;;17.36;100.00;98681.19;4856671;29;20547;-83
2022/09/04 05:20:13;;;;;;;11.57;8.25;;;;;;;17.43;100.00;98681.78;4852833;29;20107;-82
2022/09/04 05:22:38;;;;;;;15.38;9.23;;;;;;;17.37;100.00;98685.44;4859662;29;20434;-83
2022/09/04 05:25:23;;;;;;;11.98;8.82;;;;;;;17.35;100.00;98680.38;4848889;29;20037;-82
2022/09/04 05:27:51;;;;;;;11.35;8.18;;;;;;;17.34;100.00;98681.41;4851247;29;20045;-82
2022/09/04 05:30:55;;;;;;;14.70;9.07;;;;;;;17.32;100.00;98688.81;4853542;29;20395;-83
2022/09/04 05:33:20;;;;;;;;;;;;;;;17.33;100.00;98684.34;4852318;29;20048;-82
2022/09/04 05:35:46;;;;;;;10.70;8.15;;;;;;;17.23;100.00;98693.75;4845284;29;20295;-82
2022/09/04 05:38:50;;;;;;;11.95;8.77;;;;;;;17.31;100.00;98689.88;4850562;29;20072;-83
2022/09/04 05:41:31;;;;;;;13.73;9.30;;;;;;;17.31;100.00;98699.69;4847473;29;20029;-83
2022/09/04 05:44:28;;;;;;;12.35;8.90;;;;;;;17.34;100.00;98699.19;4847755;29;20132;-83
2022/09/04 05:47:39;;;;;;;13.05;9.45;;;;;;;17.36;100.00;98707.72;4852145;29;20052;-84
2022/09/04 05:50:31;;;;;;;14.85;9.15;;;;;;;17.34;100.00;98701.84;4847486;29;20116;-82
2022/09/04 05:53:15;;;;;;;13.38;8.65;;;;;;;17.39;100.00;98702.72;4851176;29;20555;-83
2022/09/04 05:56:12;;;;;;;16.50;9.82;;;;;;;17.44;100.00;98709.13;4851097;29;20113;-83
2022/09/04 05:58:58;;;;;;;13.20;8.93;;;;;;;17.40;100.00;98711.47;4846554;29;20070;-83
2022/09/04 06:01:57;;;;;;;14.90;10.60;;;;;;;17.47;100.00;98724.56;4847435;29;20066;-82
2022/09/04 06:04:58;;;;;;;13.45;9.05;;;;;;;17.47;100.00;98735.94;4852841;29;20053;-83
2022/09/04 06:08:11;;;;;;;14.68;9.65;;;;;;;17.44;100.00;98736.44;4842480;29;20093;-82
2022/09/04 06:10:58;;;;;;;19.67;10.98;;;;;;;17.50;100.00;98739.97;4841185;29;20485;-82
2022/09/04 06:13:45;;;;;;;13.50;9.38;;;;;;;17.61;100.00;98747.00;4843196;29;20376;-83
2022/09/04 06:16:37;;;;;;;17.65;10.45;;;;;;;17.63;100.00;98750.22;4867035;29;20049;-83
2022/09/04 06:19:49;;;;;;;14.65;10.27;;;;;;;17.68;100.00;98741.50;4850381;29;20049;-82
2022/09/04 06:22:26;;;;;;;17.27;10.57;;;;;;;17.67;100.00;98742.53;4833543;29;20070;-82
2022/09/04 06:25:04;;;;;;;14.45;10.20;;;;;;;17.73;100.00;98752.19;4844108;29;20477;-82
2022/09/04 06:27:49;;;;;;;14.10;10.20;;;;;;;17.74;100.00;98740.53;4848434;29;20404;-83
2022/09/04 06:30:16;;;;;;;13.75;10.98;;;;;;;17.86;100.00;98751.00;4848130;29;20168;-83
2022/09/04 06:32:48;;;;;;;14.20;11.05;;;;;;;17.95;100.00;98756.66;4850645;29;20086;-83
2022/09/04 06:35:25;;;;;;;17.52;11.80;;;;;;;17.96;100.00;98751.09;4844182;29;20073;-83
2022/09/04 06:38:19;;;;;;;17.30;11.73;;;;;;;18.09;100.00;98752.59;4853129;29;20025;-83
2022/09/04 06:40:58;;;;;;;18.25;12.77;;;;;;;18.02;100.00;98738.69;4847554;29;20025;-84
2022/09/04 06:43:51;;;;;;;16.33;11.68;;;;;;;18.14;100.00;98749.16;4846818;29;20049;-83
2022/09/04 06:46:41;;;;;;;15.27;11.35;;;;;;;18.34;100.00;98724.66;4851730;29;20470;-83
2022/09/04 06:49:17;;;;;;;20.88;12.90;;;;;;;18.35;100.00;98731.56;4850381;29;20480;-83
2022/09/04 06:52:16;;;;;;;17.88;11.38;;;;;;;18.47;100.00;98739.34;4850590;29;20032;-83
2022/09/04 06:55:01;;;;;;;15.05;11.43;;;;;;;18.38;100.00;98724.94;4852075;29;20093;-83
2022/09/04 06:57:50;;;;;;;16.63;11.60;;;;;;;18.44;100.00;98731.06;4848017;29;20045;-83
2022/09/04 07:00:19;;;;;;;17.15;12.80;;;;;;;18.50;100.00;98724.78;4847191;29;20037;-82
2022/09/04 07:03:22;;;;;;;18.77;12.63;;;;;;;18.61;100.00;98726.44;4849336;29;20450;-83
2022/09/04 07:06:02;;;;;;;17.88;11.75;;;;;;;18.58;100.00;98731.47;4842798;29;20401;-83
2022/09/04 07:08:46;;;;;;;16.45;13.20;;;;;;;18.58;100.00;98740.22;4848347;29;20441;-84
2022/09/04 07:11:34;;;;;;;14.85;12.20;;;;;;;18.67;100.00;98744.03;4855083;29;20056;-85
2022/09/04 07:14:18;;;;;;;15.18;11.30;;;;;;;18.72;100.00;98747.78;4847733;29;20049;-84
2022/09/04 07:16:52;;;;;;;26.02;13.32;;;;;;;18.68;100.00;98735.00;4848520;29;20389;-83
2022/09/04 07:19:20;;;;;;;;;;;;;;;18.82;100.00;98748.66;4852062;29;20050;-84
2022/09/04 07:22:21;;;;;;;16.02;13.00;;;;;;;18.77;100.00;98751.28;4847488;29;19920;-84
2022/09/04 07:24:55;;;;;;;22.50;13.85;;;;;;;18.64;100.00;98746.38;4835763;29;20045;-83
2022/09/04 07:27:49;;;;;;;18.63;14.73;;;;;;;18.59;100.00;98749.81;4853312;29;20030;-84
2022/09/04 07:30:18;;;;;;;20.40;14.07;;;;;;;18.56;100.00;98750.31;4846042;29;20039;-84
2022/09/04 07:32:59;;;;;;;18.98;14.55;;;;;;;18.62;100.00;98751.94;4845622;29;20049;-83
2022/09/04 07:35:51;;;;;;;23.45;15.13;;;;;;;18.66;100.00;98753.03;4826299;29;20497;-84
2022/09/04 07:38:45;;;;;;;17.00;15.20;;;;;;;18.72;100.00;98750.44;4845978;29;20052;-85
2022/09/04 07:41:39;;;;;;;18.43;15.17;;;;;;;18.88;100.00;98754.00;4864791;29;20182;-84
2022/09/04 07:44:13;;;;;;;19.92;15.27;;;;;;;18.84;100.00;98757.16;4852443;29;20308;-84
2022/09/04 07:46:56;;;;;;;18.73;15.23;;;;;;;18.87;100.00;98761.19;4855914;29;20037;-84
2022/09/04 07:49:54;;;;;;;22.65;15.90;;;;;;;19.04;100.00;98768.19;4854685;29;20420;-84
2022/09/04 07:52:23;;;;;;;19.02;14.70;;;;;;;19.20;100.00;98764.56;4864154;29;20046;-84
2022/09/04 07:55:13;;;;;;;23.52;15.70;;;;;;;19.33;100.00;98767.84;4851761;29;20400;-86
2022/09/04 07:58:07;;;;;;;21.08;14.77;;;;;;;19.39;100.00;98772.94;4856920;29;20041;-84
2022/09/04 08:00:50;;;;;;;19.13;14.63;;;;;;;19.44;100.00;98769.47;4849311;29;20499;-84
2022/09/04 08:03:28;;;;;;;24.90;15.35;;;;;;;19.50;100.00;98783.59;4833208;29;20034;-83
2022/09/04 08:06:10;;;;;;;21.52;15.20;;;;;;;19.58;100.00;98774.31;4852412;29;20117;-84
2022/09/04 08:09:05;;;;;;;17.95;14.30;;;;;;;19.64;100.00;98770.63;4854568;29;20116;-84
2022/09/04 08:12:13;;;;;;;19.52;14.43;;;;;;;19.78;100.00;98774.41;4850613;29;20034;-83
2022/09/04 08:14:52;;;;;;;24.80;17.25;;;;;;;19.81;100.00;98768.53;4848427;29;20079;-84
2022/09/04 08:17:24;;;;;;;22.50;16.13;;;;;;;19.76;100.00;98776.53;4834077;29;20038;-84
2022/09/04 08:20:01;;;;;;;23.13;17.25;;;;;;;19.83;100.00;98779.72;4851908;29;20054;-83
2022/09/04 08:22:48;;;;;;;21.30;17.35;;;;;;;20.09;100.00;98789.69;4850973;29;20679;-82
2022/09/04 08:25:53;;;;;;;22.33;16.88;;;;;;;20.13;100.00;98785.41;4849182;29;20033;-82
2022/09/04 08:28:32;;;;;;;19.67;16.65;;;;;;;20.12;100.00;98783.81;4852886;29;20041;-83
2022/09/04 08:31:02;;;;;;;21.98;16.45;;;;;;;20.11;100.00;98793.69;4846795;29;20234;-84
2022/09/04 08:33:47;;;;;;;26.30;16.58;;;;;;;20.19;100.00;98791.56;4832288;29;20041;-83
2022/09/04 08:36:26;;;;;;;20.88;15.55;;;;;;;20.37;100.00;98784.94;4854515;29;20042;-83
2022/09/04 08:39:17;;;;;;;21.40;15.30;;;;;;;20.55;100.00;98797.75;4848527;29;20177;-83
2022/09/04 08:41:54;;;;;;;18.30;14.45;;;;;;;20.77;100.00;98803.84;4848673;29;20034;-83
2022/09/04 08:44:55;;;;;;;23.00;15.48;;;;;;;20.91;100.00;98820.97;4853457;29;20087;-82
2022/09/04 08:47:56;;;;;;;18.52;14.40;;;;;;;21.24;100.00;98825.97;4831552;29;20042;-82
2022/09/04 08:50:26;;;;;;;17.27;12.90;;;;;;;21.58;100.00;98827.22;4856643;29;20033;-85
2022/09/04 08:53:17;;;;;;;16.15;13.20;;;;;;;21.90;100.00;98826.03;4851444;29;20436;-85
2022/09/04 08:55:49;;;;;;;20.05;13.70;;;;;;;22.08;100.00;98824.59;4851106;29;20061;-86
2022/09/04 08:58:41;;;;;;;20.70;13.20;;;;;;;22.17;100.00;98819.47;4852490;29;20117;-86
2022/09/04 09:01:25;;;;;;;19.08;12.95;;;;;;;22.45;100.00;98831.31;4836315;29;20038;-86
2022/09/04 09:03:51;;;;;;;16.15;12.05;;;;;;;22.35;100.00;98836.75;4844966;29;20071;-86
2022/09/04 09:06:30;;;;;;;20.35;12.32;;;;;;;22.30;100.00;98834.09;4853540;29;20112;-86
2022/09/04 09:09:08;;;;;;;16.75;10.90;;;;;;;22.37;100.00;98831.94;4851110;29;20038;-86
2022/09/04 09:12:04;;;;;;;15.02;11.95;;;;;;;22.20;100.00;98842.97;4854231;29;20353;-87
2022/09/04 09:15:01;;;;;;;16.38;10.90;;;;;;;22.34;100.00;98837.84;4849904;29;20578;-87
2022/09/04 09:17:32;;;;;;;14.98;10.38;;;;;;;22.34;100.00;98838.63;4845986;29;20448;-88
2022/09/04 09:20:12;;;;;;;15.68;11.07;;;;;;;22.23;100.00;98839.78;4834434;29;20189;-88
2022/09/04 09:23:15;;;;;;;16.83;10.65;;;;;;;22.63;100.00;98840.59;4847691;29;20030;-89
2022/09/04 09:26:19;;;;;;;15.52;10.07;;;;;;;22.57;100.00;98828.31;4835454;29;20045;-86
2022/09/04 09:29:00;;;;;;;14.57;10.65;;;;;;;22.54;100.00;98831.56;4830579;29;20042;-85
2022/09/04 09:31:45;;;;;;;17.80;9.55;;;;;;;22.58;100.00;98843.28;4845990;29;20571;-86
2022/09/04 09:34:33;;;;;;;17.65;10.07;;;;;;;22.42;100.00;98844.47;4848292;29;20041;-85
2022/09/04 09:37:36;;;;;;;17.65;10.05;;;;;;;22.43;100.00;98851.41;4846521;29;20044;-86
2022/09/04 09:40:21;;;;;;;14.38;9.77;;;;;;;22.36;100.00;98852.50;4843026;29;20042;-86
2022/09/04 09:42:56;;;;;;;17.08;9.82;;;;;;;22.00;100.00;98842.00;4862749;29;20084;-85
2022/09/04 09:45:50;;;;;;;13.70;9.60;;;;;;;21.81;100.00;98845.34;4845470;29;20030;-85
2022/09/04 09:48:48;;;;;;;17.30;9.90;;;;;;;21.94;100.00;98849.28;4849527;29;20116;-85
2022/09/04 09:51:48;;;;;;;17.15;9.18;;;;;;;22.21;100.00;98855.28;4846858;29;20144;-85
2022/09/04 09:54:27;;;;;;;15.48;9.43;;;;;;;22.44;100.00;98848.44;4849497;29;20046;-85
2022/09/04 09:57:40;;;;;;;15.02;9.40;;;;;;;22.48;100.00;98844.16;4852862;29;20165;-86
2022/09/04 10:00:11;;;;;;;13.00;8.95;;;;;;;22.82;100.00;98856.75;4848634;29;20041;-85
2022/09/04 10:03:17;;;;;;;13.50;8.98;;;;;;;22.99;100.00;98862.75;4851258;29;20022;-86
2022/09/04 10:06:01;;;;;;;15.85;9.13;;;;;;;23.32;100.00;98865.72;4860638;29;20124;-86
2022/09/04 10:09:05;;;;;;;11.15;8.50;;;;;;;23.41;100.00;98858.66;4854251;29;20026;-87
2022/09/04 10:11:42;;;;;;;15.40;8.80;;;;;;;23.38;100.00;98868.06;4851403;29;20487;-85
2022/09/04 10:14:18;;;;;;;17.70;9.10;;;;;;;23.54;100.00;98847.25;4845687;29;20041;-85
2022/09/04 10:17:06;;;;;;;12.27;9.50;;;;;;;23.44;100.00;98858.09;4851219;29;20034;-86
2022/09/04 10:20:07;;;;;;;14.18;8.88;;;;;;;23.26;100.00;98846.22;4849922;29;20069;-86
2022/09/04 10:22:42;;;;;;;13.25;8.82;;;;;;;23.41;100.00;98855.97;4844600;29;20053;-86
2022/09/04 10:25:25;;;;;;;13.40;8.25;;;;;;;23.75;100.00;98852.38;4847946;29;20378;-85
2022/09/04 10:28:13;;;;;;;13.30;9.23;;;;;;;23.79;100.00;98847.25;4851424;29;20108;-86
2022/09/04 10:30:41;;;;;;;12.75;8.20;;;;;;;24.10;100.00;98846.88;4845472;29;20174;-87
2022/09/04 10:33:31;;;;;;;13.40;8.32;;;;;;;24.45;100.00;98849.34;4838167;29;20065;-87
2022/09/04 10:36:18;;;;;;;11.90;8.25;;;;;;;24.48;100.00;98840.69;4836207;29;20034;-86
2022/09/04 10:41:55;;;;;;;12.27;7.75;;;;;;;24.92;100.00;98857.47;4844670;29;20397;-86
2022/09/04 10:44:58;;;;;;;14.45;7.47;;;;;;;24.94;100.00;98853.38;4853086;29;20392;-86
2022/09/04 10:48:02;;;;;;;12.98;7.30;;;;;;;24.88;100.00;98865.31;4819003;29;20046;-86
2022/09/04 10:50:34;;;;;;;11.45;6.82;;;;;;;24.56;100.00;98856.13;4867572;29;20038;-86
2022/09/04 10:53:13;;;;;;;11.85;6.65;;;;;;;24.89;100.00;98864.22;4851638;29;20483;-85
2022/09/04 10:59:35;;;;;;;10.60;6.72;;;;;;;24.32;100.00;98880.38;4848249;29;20385;-86
2022/09/04 11:02:12;;;;;;;10.80;7.18;;;;;;;24.12;100.00;98884.13;4852965;29;20481;-86
2022/09/04 11:05:16;;;;;;;15.57;7.57;;;;;;;23.86;100.00;98885.19;4854569;29;20033;-87
2022/09/04 11:07:54;;;;;;;10.85;6.97;;;;;;;24.15;100.00;98894.25;4852101;29;20041;-85
2022/09/04 11:10:31;;;;;;;13.77;7.18;;;;;;;24.01;100.00;98881.56;4851359;29;20042;-86
2022/09/04 11:13:21;;;;;;;13.82;7.05;;;;;;;24.06;100.00;98894.09;4849444;29;20061;-86
2022/09/04 11:16:15;;;;;;;8.57;6.35;;;;;;;24.05;100.00;98885.28;4852326;29;20054;-86
2022/09/04 11:18:58;;;;;;;17.75;7.35;;;;;;;24.43;100.00;98892.53;4847270;29;20386;-88
2022/09/04 11:22:01;;;;;;;14.25;6.82;;;;;;;24.37;100.00;98896.38;4850130;29;20045;-85
2022/09/04 11:24:52;;;;;;;11.65;6.57;;;;;;;24.55;100.00;98894.78;4851529;29;20487;-87
2022/09/04 11:27:48;;;;;;;12.00;6.32;;;;;;;24.73;100.00;98895.03;4849211;29;20049;-87
2022/09/04 11:30:18;;;;;;;9.90;5.82;;;;;;;25.02;100.00;98900.25;4853667;29;20495;-86
2022/09/04 11:33:36;;;;;;;9.77;5.93;;;;;;;25.21;100.00;98894.84;4853958;29;20053;-87
2022/09/04 11:36:34;;;;;;;12.25;6.00;;;;;;;25.32;100.00;98883.88;4854677;29;20038;-86
2022/09/04 11:39:30;;;;;;;10.32;6.07;;;;;;;25.28;100.00;98894.44;4866388;29;20068;-86
2022/09/04 11:42:40;;;;;;;13.65;6.25;;;;;;;25.30;100.00;98896.81;4854050;29;20037;-85
2022/09/04 11:45:25;;;;;;;12.25;6.15;;;;;;;25.43;100.00;98906.81;4829542;29;20429;-84
2022/09/04 11:48:18;;;;;;;9.45;6.07;;;;;;;24.94;100.00;98906.31;4831663;29;20499;-83
2022/09/04 11:51:09;;;;;;;9.17;5.90;;;;;;;24.98;100.00;98909.19;4834297;29;20046;-86
2022/09/04 11:53:59;;;;;;;13.68;5.45;;;;;;;24.73;100.00;98900.41;4849020;29;20033;-86
2022/09/04 11:57:04;;;;;;;9.98;5.85;;;;;;;24.70;100.00;98911.75;4855510;29;20112;-86
2022/09/04 11:59:33;;;;;;;7.50;5.93;;;;;;;24.41;100.00;98915.38;4856149;29;20501;-85
2022/09/04 12:02:17;;;;;;;10.10;6.15;;;;;;;24.53;100.00;98923.78;4851988;29;20129;-83
2022/09/04 12:05:02;;;;;;;12.73;5.90;;;;;;;24.96;100.00;98925.59;4850179;29;20038;-82
2022/09/04 12:07:52;;;;;;;12.13;5.95;;;;;;;25.27;100.00;98925.09;4848978;29;20543;-83
2022/09/04 12:10:17;;;;;;;9.40;5.47;;;;;;;25.50;100.00;98923.34;4858751;29;20117;-82
2022/09/04 12:13:10;;;;;;;13.90;6.00;;;;;;;25.85;100.00;98922.19;4845196;29;20117;-84
2022/09/04 12:16:01;;;;;;;10.27;5.63;;;;;;;25.71;100.00;98922.19;4855645;29;20092;-83
2022/09/04 12:18:54;;;;;;;9.70;5.40;;;;;;;25.32;100.00;98930.38;4854229;29;20125;-84
2022/09/04 12:21:51;;;;;;;11.52;5.97;;;;;;;25.07;100.00;98928.91;4851287;29;20048;-85
2022/09/04 12:24:29;;;;;;;7.57;4.63;;;;;;;25.36;100.00;98923.31;4849861;29;20511;-85
2022/09/04 12:27:00;;;;;;;7.20;5.50;;;;;;;24.98;100.00;98928.00;4852220;29;20038;-84
2022/09/04 12:29:45;;;;;;;11.27;5.60;;;;;;;24.99;100.00;98924.22;4849758;29;20120;-84
2022/09/04 12:32:45;;;;;;;9.48;5.03;;;;;;;25.06;100.00;98913.88;4846614;29;20034;-83
2022/09/04 12:35:53;;;;;;;12.27;5.07;;;;;;;25.03;100.00;98911.78;4850031;29;20041;-84
2022/09/04 12:38:31;;;;;;;10.45;5.75;;;;;;;25.33;100.00;98931.16;4849456;29;20070;-84
2022/09/04 12:41:28;;;;;;;6.40;4.53;;;;;;;25.77;100.00;98929.84;4852260;29;20046;-83
2022/09/04 12:44:14;;;;;;;8.02;4.57;;;;;;;25.78;100.00;98920.69;4849988;29;20052;-84
2022/09/04 12:46:56;;;;;;;9.82;5.10;;;;;;;25.71;100.00;98906.06;4849506;29;20041;-83